createdAt,value
2018-04-18T00:01:01.740Z,7.43
2018-04-18T00:03:29.612Z,7.50
2018-04-18T00:05:57.055Z,6.83
2018-04-18T00:08:25.060Z,7.70
2018-04-18T00:10:52.531Z,7.20
2018-04-18T00:13:20.025Z,7.27
2018-04-18T00:15:47.472Z,7.30
2018-04-18T00:18:14.936Z,7.37
2018-04-18T00:20:42.491Z,7.07
2018-04-18T00:23:10.710Z,7.80
2018-04-18T00:25:38.175Z,6.43
2018-04-18T00:28:05.647Z,7.87
2018-04-18T00:30:33.099Z,8.00
2018-04-18T00:33:00.575Z,7.13
2018-04-18T00:35:28.038Z,7.20
2018-04-18T00:37:55.519Z,7.17
2018-04-18T00:40:23.739Z,7.00
2018-04-18T00:42:51.221Z,7.50
2018-04-18T00:45:18.673Z,7.60
2018-04-18T00:47:46.155Z,7.60
2018-04-18T00:50:14.436Z,8.20
2018-04-18T00:52:42.660Z,8.37
2018-04-18T00:55:10.128Z,7.33
2018-04-18T00:57:37.594Z,7.20
2018-04-18T01:00:05.121Z,6.83
2018-04-18T01:02:32.571Z,7.57
2018-04-18T01:05:00.063Z,6.47
2018-04-18T01:07:27.513Z,7.00
2018-04-18T01:09:54.971Z,7.37
2018-04-18T01:12:22.432Z,7.30
2018-04-18T01:14:49.907Z,8.30
2018-04-18T01:17:17.356Z,8.13
2018-04-18T01:19:44.848Z,8.17
2018-04-18T01:22:12.298Z,7.57
2018-04-18T01:24:39.791Z,7.73
2018-04-18T01:27:07.238Z,7.57
2018-04-18T01:29:35.479Z,8.03
2018-04-18T01:32:02.941Z,7.20
2018-04-18T01:34:30.416Z,6.67
2018-04-18T01:36:57.876Z,6.70
2018-04-18T01:39:25.338Z,7.00
2018-04-18T01:41:52.914Z,6.30
2018-04-18T01:44:21.152Z,6.40
2018-04-18T01:46:48.626Z,7.30
2018-04-18T01:49:21.508Z,6.00
2018-04-18T01:51:48.984Z,6.13
2018-04-18T01:54:16.435Z,6.50
2018-04-18T01:56:43.907Z,6.50
2018-04-18T01:59:11.383Z,7.40
2018-04-18T02:01:38.871Z,7.00
2018-04-18T02:04:06.329Z,7.17
2018-04-18T02:06:33.779Z,6.27
2018-04-18T02:09:01.248Z,7.03
2018-04-18T02:11:28.736Z,6.67
2018-04-18T02:13:57.289Z,5.93
2018-04-18T02:16:24.743Z,6.73
2018-04-18T02:18:52.210Z,6.33
2018-04-18T02:21:19.667Z,6.20
2018-04-18T02:23:47.135Z,6.10
2018-04-18T02:26:14.607Z,5.47
2018-04-18T02:28:42.253Z,5.90
2018-04-18T02:31:09.729Z,6.40
2018-04-18T02:33:37.199Z,6.10
2018-04-18T02:36:04.663Z,6.37
2018-04-18T02:38:32.138Z,6.57
2018-04-18T02:40:59.680Z,5.00
2018-04-18T02:43:27.204Z,5.90
2018-04-18T02:45:54.660Z,5.50
2018-04-18T02:48:22.172Z,5.50
2018-04-18T02:50:49.595Z,5.40
2018-04-18T02:53:17.043Z,5.57
2018-04-18T02:55:44.515Z,6.70
2018-04-18T02:58:12.743Z,5.87
2018-04-18T03:00:40.215Z,6.07
2018-04-18T03:03:07.696Z,6.37
2018-04-18T03:05:35.164Z,5.87
2018-04-18T03:08:03.403Z,6.00
2018-04-18T03:10:30.860Z,6.60
2018-04-18T03:12:58.339Z,5.73
2018-04-18T03:15:25.796Z,5.20
2018-04-18T03:17:53.358Z,5.40
2018-04-18T03:20:20.839Z,5.50
2018-04-18T03:22:49.082Z,5.80
2018-04-18T03:25:16.564Z,5.60
2018-04-18T03:27:45.501Z,5.50
2018-04-18T03:30:12.984Z,6.40
2018-04-18T03:32:40.459Z,5.30
2018-04-18T03:35:07.944Z,4.33
2018-04-18T03:37:35.422Z,5.73
2018-04-18T03:40:02.956Z,4.80
2018-04-18T03:42:31.198Z,4.63
2018-04-18T03:44:58.647Z,4.63
2018-04-18T03:47:26.144Z,4.90
2018-04-18T03:49:53.604Z,4.37
2018-04-18T03:52:21.077Z,4.77
2018-04-18T03:54:49.314Z,4.37
2018-04-18T03:57:16.764Z,4.80
2018-04-18T03:59:44.236Z,5.17
2018-04-18T04:02:11.690Z,5.03
2018-04-18T04:04:39.167Z,5.60
2018-04-18T04:07:06.639Z,5.50
2018-04-18T04:09:34.892Z,4.80
2018-04-18T04:12:02.335Z,4.30
2018-04-18T04:14:29.816Z,5.50
2018-04-18T04:17:09.040Z,4.83
2018-04-18T04:19:48.377Z,5.20
2018-04-18T04:22:27.795Z,5.30
2018-04-18T04:24:55.292Z,5.13
2018-04-18T04:27:23.511Z,5.63
2018-04-18T04:29:51.015Z,5.20
2018-04-18T04:32:18.499Z,6.10
2018-04-18T04:34:46.739Z,4.90
2018-04-18T04:37:14.192Z,4.83
2018-04-18T04:39:42.450Z,5.30
2018-04-18T04:42:09.895Z,5.00
2018-04-18T04:44:37.380Z,5.57
2018-04-18T04:47:04.838Z,4.90
2018-04-18T04:49:32.317Z,4.60
2018-04-18T04:51:59.815Z,5.30
2018-04-18T04:54:27.304Z,5.13
2018-04-18T04:56:54.780Z,5.20
2018-04-18T04:59:22.227Z,5.27
2018-04-18T05:01:49.699Z,5.17
2018-04-18T05:04:17.148Z,5.50
2018-04-18T05:06:44.624Z,4.70
2018-04-18T05:09:12.080Z,5.90
2018-04-18T05:11:39.563Z,4.90
2018-04-18T05:14:07.035Z,6.07
2018-04-18T05:16:34.488Z,5.40
2018-04-18T05:19:02.729Z,6.27
2018-04-18T05:21:30.185Z,4.80
2018-04-18T05:23:57.662Z,5.10
2018-04-18T05:26:25.132Z,4.40
2018-04-18T05:28:53.348Z,4.80
2018-04-18T05:31:20.824Z,5.47
2018-04-18T05:33:48.357Z,5.80
2018-04-18T05:36:15.831Z,5.37
2018-04-18T05:38:43.303Z,5.30
2018-04-18T05:41:10.789Z,6.33
2018-04-18T05:43:38.302Z,6.90
2018-04-18T05:46:05.756Z,7.97
2018-04-18T05:48:33.268Z,8.53
2018-04-18T05:51:00.831Z,7.27
2018-04-18T05:56:02.513Z,9.03
2018-04-18T05:58:29.971Z,8.27
2018-04-18T06:00:57.459Z,7.20
2018-04-18T06:03:25.000Z,6.97
2018-04-18T06:05:52.496Z,8.27
2018-04-18T06:08:20.041Z,7.90
2018-04-18T06:10:47.554Z,10.23
2018-04-18T06:13:15.821Z,9.20
2018-04-18T06:15:43.296Z,11.60
2018-04-18T06:18:11.520Z,9.27
2018-04-18T06:20:39.070Z,11.20
2018-04-18T06:23:06.538Z,12.33
2018-04-18T06:25:34.005Z,12.63
2018-04-18T06:28:01.495Z,15.03
2018-04-18T06:30:28.947Z,14.27
2018-04-18T06:32:56.440Z,13.60
2018-04-18T06:35:23.931Z,12.03
2018-04-18T06:37:51.412Z,12.97
2018-04-18T06:40:18.879Z,13.17
2018-04-18T06:42:46.372Z,11.90
2018-04-18T06:45:13.857Z,13.67
2018-04-18T06:47:41.359Z,14.40
2018-04-18T06:50:08.823Z,13.57
2018-04-18T06:52:36.276Z,13.87
2018-04-18T06:55:03.763Z,14.07
2018-04-18T06:57:31.263Z,12.43
2018-04-18T06:59:58.715Z,12.70
2018-04-18T07:02:26.204Z,12.37
2018-04-18T07:04:53.679Z,13.03
2018-04-18T07:07:21.919Z,11.20
2018-04-18T07:09:50.174Z,11.87
2018-04-18T07:12:17.663Z,9.63
2018-04-18T07:14:45.136Z,10.50
2018-04-18T07:17:12.595Z,10.07
2018-04-18T07:19:40.112Z,8.93
2018-04-18T07:22:07.571Z,10.87
2018-04-18T07:24:35.059Z,8.50
2018-04-18T07:27:02.511Z,8.10
2018-04-18T07:29:29.980Z,9.70
2018-04-18T07:31:57.462Z,8.27
2018-04-18T07:34:25.737Z,8.33
2018-04-18T07:36:53.180Z,10.40
2018-04-18T07:39:20.677Z,11.30
2018-04-18T07:41:48.216Z,9.63
2018-04-18T07:44:16.468Z,9.80
2018-04-18T07:46:43.932Z,10.97
2018-04-18T07:49:11.403Z,9.60
2018-04-18T07:51:39.627Z,9.33
2018-04-18T07:54:07.115Z,10.27
2018-04-18T07:56:34.611Z,8.43
2018-04-18T07:59:02.852Z,9.60
2018-04-18T08:01:30.324Z,10.60
2018-04-18T08:03:57.804Z,9.80
2018-04-18T08:06:26.050Z,9.77
2018-04-18T08:08:53.504Z,9.00
2018-04-18T08:11:21.024Z,11.53
2018-04-18T08:13:48.480Z,11.27
2018-04-18T08:16:15.966Z,8.63
2018-04-18T08:18:43.435Z,10.00
2018-04-18T08:21:10.939Z,12.23
2018-04-18T08:23:38.400Z,11.00
2018-04-18T08:26:05.908Z,10.80
2018-04-18T08:28:33.396Z,11.60
2018-04-18T08:31:01.620Z,11.70
2018-04-18T08:33:29.111Z,11.57
2018-04-18T08:35:56.578Z,10.00
2018-04-18T08:38:24.056Z,8.63
2018-04-18T08:40:52.365Z,11.57
2018-04-18T08:43:19.805Z,9.80
2018-04-18T08:45:47.276Z,9.60
2018-04-18T08:48:14.728Z,10.07
2018-04-18T08:50:42.216Z,10.97
2018-04-18T08:53:09.681Z,11.77
2018-04-18T08:55:37.156Z,10.80
2018-04-18T08:58:04.632Z,9.60
2018-04-18T09:00:32.101Z,11.80
2018-04-18T09:02:59.656Z,10.60
2018-04-18T09:05:27.895Z,11.07
2018-04-18T09:07:56.976Z,11.10
2018-04-18T09:10:25.311Z,8.93
2018-04-18T09:12:53.568Z,8.77
2018-04-18T09:15:21.019Z,8.50
2018-04-18T09:17:48.487Z,8.63
2018-04-18T09:20:15.965Z,8.60
2018-04-18T09:22:44.203Z,8.67
2018-04-18T09:25:11.688Z,9.07
2018-04-18T09:27:39.932Z,9.27
2018-04-18T09:30:07.392Z,10.93
2018-04-18T09:32:34.871Z,9.47
2018-04-18T09:35:02.345Z,8.57
2018-04-18T09:37:30.585Z,11.50
2018-04-18T09:39:58.048Z,10.00
2018-04-18T09:42:25.536Z,8.43
2018-04-18T09:44:53.775Z,10.57
2018-04-18T09:47:21.256Z,8.60
2018-04-18T09:49:48.732Z,9.63
2018-04-18T09:52:16.200Z,10.27
2018-04-18T09:54:43.689Z,10.13
2018-04-18T09:57:11.164Z,8.60
2018-04-18T09:59:38.629Z,7.13
2018-04-18T10:02:11.863Z,8.70
2018-04-18T10:04:44.916Z,7.47
2018-04-18T10:07:12.372Z,6.80
2018-04-18T10:09:39.835Z,7.80
2018-04-18T10:12:07.335Z,8.70
2018-04-18T10:14:34.825Z,7.23
2018-04-18T10:17:02.299Z,4.80
2018-04-18T10:19:29.751Z,6.77
2018-04-18T10:21:57.228Z,7.07
2018-04-18T10:24:24.745Z,7.70
2018-04-18T10:26:52.261Z,7.97
2018-04-18T10:29:19.735Z,7.10
2018-04-18T10:31:47.320Z,8.20
2018-04-18T10:34:14.796Z,7.60
2018-04-18T10:36:42.262Z,8.43
2018-04-18T10:39:09.748Z,8.50
2018-04-18T10:41:37.231Z,6.47
2018-04-18T10:44:04.705Z,6.70
2018-04-18T10:46:32.183Z,6.47
2018-04-18T10:48:59.763Z,5.70
2018-04-18T10:51:27.214Z,6.10
2018-04-18T10:53:54.685Z,7.47
2018-04-18T10:56:22.149Z,6.33
2018-04-18T10:58:49.643Z,6.60
2018-04-18T11:01:17.223Z,5.43
2018-04-18T11:03:44.691Z,7.37
2018-04-18T11:06:12.163Z,6.07
2018-04-18T11:08:39.615Z,5.90
2018-04-18T11:11:07.108Z,7.63
2018-04-18T11:13:34.579Z,6.97
2018-04-18T11:16:02.064Z,6.17
2018-04-18T11:18:29.525Z,6.80
2018-04-18T11:20:57.012Z,6.33
2018-04-18T11:23:24.485Z,7.27
2018-04-18T11:25:51.962Z,6.50
2018-04-18T11:28:19.444Z,7.07
2018-04-18T11:30:47.709Z,7.70
2018-04-18T11:33:15.959Z,5.60
2018-04-18T11:35:43.435Z,7.33
2018-04-18T11:38:11.688Z,6.63
2018-04-18T11:40:39.151Z,7.77
2018-04-18T11:43:06.631Z,7.13
2018-04-18T11:45:34.083Z,6.83
2018-04-18T11:48:01.568Z,7.23
2018-04-18T11:50:29.788Z,7.60
2018-04-18T11:52:58.031Z,7.17
2018-04-18T11:55:25.513Z,6.77
2018-04-18T11:57:52.965Z,7.00
2018-04-18T12:00:20.475Z,7.00
2018-04-18T12:02:47.975Z,6.93
2018-04-18T12:05:15.452Z,7.07
2018-04-18T12:07:42.930Z,6.73
2018-04-18T12:10:10.393Z,6.17
2018-04-18T12:12:37.874Z,7.60
2018-04-18T12:15:05.347Z,7.40
2018-04-18T12:17:32.821Z,8.07
2018-04-18T12:20:00.324Z,7.93
2018-04-18T12:22:27.783Z,7.70
2018-04-18T12:24:56.029Z,8.00
2018-04-18T12:27:23.516Z,6.80
2018-04-18T12:29:51.023Z,7.03
2018-04-18T12:32:18.512Z,6.30
2018-04-18T12:34:45.979Z,9.20
2018-04-18T12:37:13.475Z,9.00
2018-04-18T12:39:40.940Z,7.40
2018-04-18T12:42:09.171Z,7.40
2018-04-18T12:44:36.655Z,7.57
2018-04-18T12:47:04.124Z,7.70
2018-04-18T12:49:31.604Z,7.63
2018-04-18T12:51:59.212Z,7.93
2018-04-18T12:54:26.686Z,7.97
2018-04-18T12:56:54.154Z,8.13
2018-04-18T12:59:21.645Z,8.10
2018-04-18T13:01:49.100Z,7.53
2018-04-18T13:04:16.559Z,8.83
2018-04-18T13:06:44.043Z,8.87
2018-04-18T13:09:11.519Z,10.30
2018-04-18T13:11:38.995Z,6.70
2018-04-18T13:14:06.473Z,8.70
2018-04-18T13:16:34.689Z,8.13
2018-04-18T13:19:02.186Z,7.63
2018-04-18T13:21:29.676Z,8.47
2018-04-18T13:23:57.899Z,8.60
2018-04-18T13:26:25.384Z,6.80
2018-04-18T13:28:52.835Z,5.40
2018-04-18T13:31:20.320Z,7.23
2018-04-18T13:33:48.544Z,8.80
2018-04-18T13:36:16.023Z,9.17
2018-04-18T13:38:43.509Z,8.00
2018-04-18T13:41:11.740Z,9.30
2018-04-18T13:43:39.232Z,8.20
2018-04-18T13:46:06.715Z,7.90
2018-04-18T13:48:34.208Z,8.30
2018-04-18T13:51:01.667Z,9.10
2018-04-18T13:53:29.162Z,8.60
2018-04-18T13:55:56.653Z,9.30
2018-04-18T13:58:24.888Z,8.30
2018-04-18T14:00:52.360Z,9.10
2018-04-18T14:03:19.842Z,9.30
2018-04-18T14:05:48.059Z,10.07
2018-04-18T14:08:15.554Z,8.70
2018-04-18T14:10:43.002Z,11.03
2018-04-18T14:13:10.488Z,9.40
2018-04-18T14:15:38.707Z,9.87
2018-04-18T14:18:06.162Z,9.93
2018-04-18T14:20:33.708Z,8.83
2018-04-18T14:23:01.189Z,9.00
2018-04-18T14:25:28.657Z,9.13
2018-04-18T14:27:56.131Z,9.07
2018-04-18T14:30:23.612Z,8.10
2018-04-18T14:32:51.071Z,8.90
2018-04-18T14:35:18.553Z,9.13
2018-04-18T14:37:46.040Z,8.33
2018-04-18T14:40:13.464Z,9.43
2018-04-18T14:42:40.940Z,8.10
2018-04-18T14:45:08.608Z,9.00
2018-04-18T14:47:36.081Z,7.93
2018-04-18T14:50:03.577Z,9.93
2018-04-18T14:52:31.823Z,9.30
2018-04-18T14:54:59.299Z,9.30
2018-04-18T14:57:26.770Z,10.40
2018-04-18T14:59:55.021Z,10.90
2018-04-18T15:02:22.500Z,10.37
2018-04-18T15:04:50.725Z,12.30
2018-04-18T15:07:18.220Z,10.20
2018-04-18T15:09:45.684Z,8.87
2018-04-18T15:12:13.140Z,11.43
2018-04-18T15:14:40.632Z,12.50
2018-04-18T15:17:08.119Z,10.77
2018-04-18T15:19:35.596Z,11.93
2018-04-18T15:22:03.059Z,12.30
2018-04-18T15:24:30.540Z,13.00
2018-04-18T15:26:58.034Z,12.43
2018-04-18T15:29:25.540Z,13.30
2018-04-18T15:31:53.791Z,12.60
2018-04-18T15:34:21.277Z,12.90
2018-04-18T15:36:48.759Z,15.40
2018-04-18T15:39:17.020Z,14.37
2018-04-18T15:41:44.504Z,14.10
2018-04-18T15:44:12.755Z,14.57
2018-04-18T15:46:40.231Z,15.83
2018-04-18T15:49:08.480Z,15.63
2018-04-18T15:51:35.936Z,18.13
2018-04-18T15:54:03.427Z,16.10
2018-04-18T15:56:31.669Z,17.27
2018-04-18T16:01:33.807Z,16.30
2018-04-18T16:04:02.937Z,18.60
2018-04-18T16:06:30.403Z,17.07
2018-04-18T16:08:57.885Z,16.20
2018-04-18T16:11:25.384Z,16.50
2018-04-18T16:13:52.881Z,17.90
2018-04-18T16:16:20.336Z,17.47
2018-04-18T16:18:47.802Z,18.07
2018-04-18T16:21:15.284Z,18.20
2018-04-18T16:23:42.734Z,18.10
2018-04-18T16:26:10.220Z,20.27
2018-04-18T16:28:38.434Z,18.30
2018-04-18T16:31:05.935Z,16.53
2018-04-18T16:33:33.387Z,17.87
2018-04-18T16:36:00.861Z,18.30
2018-04-18T16:38:28.336Z,19.10
2018-04-18T16:40:55.807Z,17.87
2018-04-18T16:43:23.260Z,17.10
2018-04-18T16:45:50.805Z,17.80
2018-04-18T16:48:18.386Z,17.87
2018-04-18T16:50:45.883Z,15.93
2018-04-18T16:53:13.335Z,15.27
2018-04-18T16:55:40.811Z,15.60
2018-04-18T16:58:08.289Z,14.47
2018-04-18T17:00:35.759Z,15.53
2018-04-18T17:03:03.256Z,15.10
2018-04-18T17:05:30.718Z,16.40
2018-04-18T17:07:58.316Z,15.67
2018-04-18T17:10:26.715Z,15.70
2018-04-18T17:12:55.007Z,17.10
2018-04-18T17:15:22.491Z,19.00
2018-04-18T17:17:49.986Z,14.30
2018-04-18T17:20:17.451Z,17.42
2018-04-18T17:22:44.952Z,29.20
2018-04-18T17:25:12.409Z,17.83
2018-04-18T17:27:39.861Z,18.20
2018-04-18T17:30:07.357Z,17.63
2018-04-18T17:32:34.819Z,17.20
2018-04-18T17:35:02.294Z,26.20
2018-04-18T17:37:29.760Z,44.70
2018-04-18T17:39:58.255Z,15.13
2018-04-18T17:42:26.556Z,13.40
2018-04-18T17:44:54.077Z,12.70
2018-04-18T17:47:21.559Z,14.80
2018-04-18T17:49:49.007Z,16.27
2018-04-18T17:52:16.499Z,12.60
2018-04-18T17:54:43.969Z,13.57
2018-04-18T17:57:11.479Z,12.20
2018-04-18T17:59:39.759Z,12.03
2018-04-18T18:02:07.999Z,12.93
2018-04-18T18:04:35.468Z,11.70
2018-04-18T18:07:02.968Z,12.27
2018-04-18T18:09:30.424Z,11.97
2018-04-18T18:11:57.931Z,11.20
2018-04-18T18:14:25.415Z,9.90
2018-04-18T18:16:52.989Z,10.10
2018-04-18T18:19:21.213Z,10.80
2018-04-18T18:21:48.699Z,10.47
2018-04-18T18:24:16.171Z,9.90
2018-04-18T18:26:44.399Z,9.30
2018-04-18T18:29:11.881Z,10.50
2018-04-18T18:31:39.379Z,10.40
2018-04-18T18:34:07.629Z,10.23
2018-04-18T18:36:35.146Z,10.77
2018-04-18T18:39:02.899Z,12.10
2018-04-18T18:41:30.453Z,11.17
2018-04-18T18:43:57.959Z,12.13
2018-04-18T18:46:25.431Z,11.10
2018-04-18T18:48:53.005Z,13.43
2018-04-18T18:51:21.395Z,14.40
2018-04-18T18:53:48.867Z,14.50
2018-04-18T18:56:16.387Z,14.67
2018-04-18T18:58:44.039Z,15.67
2018-04-18T19:01:11.547Z,16.80
2018-04-18T19:03:39.199Z,16.93
2018-04-18T19:06:07.440Z,17.43
2018-04-18T19:08:35.795Z,16.30
2018-04-18T19:11:03.416Z,16.43
2018-04-18T19:13:31.667Z,19.87
2018-04-18T19:15:59.316Z,18.40
2018-04-18T19:18:27.768Z,18.90
2018-04-18T19:20:55.270Z,18.70
2018-04-18T19:23:23.044Z,20.20
2018-04-18T19:25:50.536Z,19.87
2018-04-18T19:28:18.222Z,19.40
2018-04-18T19:30:45.670Z,18.63
2018-04-18T19:33:13.466Z,21.33
2018-04-18T19:35:40.967Z,22.07
2018-04-18T19:38:08.489Z,20.93
2018-04-18T19:40:36.250Z,20.00
2018-04-18T19:43:03.891Z,21.43
2018-04-18T19:45:31.637Z,20.47
2018-04-18T19:47:59.335Z,22.00
2018-04-18T19:50:26.864Z,21.27
2018-04-18T19:52:54.343Z,23.73
2018-04-18T19:55:21.946Z,22.57
2018-04-18T19:57:49.510Z,21.73
2018-04-18T20:00:18.133Z,21.33
2018-04-18T20:02:45.639Z,22.17
2018-04-18T20:05:13.174Z,21.53
2018-04-18T20:07:40.997Z,23.10
2018-04-18T20:10:08.551Z,24.20
2018-04-18T20:12:36.204Z,21.40
2018-04-18T20:15:03.713Z,23.73
2018-04-18T20:17:31.190Z,23.10
2018-04-18T20:19:58.661Z,23.47
2018-04-18T20:22:26.167Z,24.30
2018-04-18T20:24:53.596Z,23.80
2018-04-18T20:27:21.844Z,22.73
2018-04-18T20:29:50.152Z,24.13
2018-04-18T20:32:18.404Z,23.90
2018-04-18T20:34:45.864Z,24.30
2018-04-18T20:37:13.500Z,24.80
2018-04-18T20:39:41.020Z,23.10
2018-04-18T20:42:09.251Z,23.30
2018-04-18T20:44:36.714Z,25.70
2018-04-18T20:47:04.173Z,24.87
2018-04-18T20:49:31.660Z,24.53
2018-04-18T20:51:59.939Z,25.50
2018-04-18T20:54:28.207Z,26.27
2018-04-18T20:56:55.659Z,24.97
2018-04-18T20:59:23.140Z,23.43
2018-04-18T21:01:51.395Z,25.47
2018-04-18T21:04:18.880Z,23.60
2018-04-18T21:06:47.128Z,26.03
2018-04-18T21:09:14.588Z,26.17
2018-04-18T21:11:42.107Z,24.93
2018-04-18T21:14:09.565Z,24.50
2018-04-18T21:16:37.022Z,23.80
2018-04-18T21:19:04.507Z,27.67
2018-04-18T21:21:31.979Z,26.40
2018-04-18T21:23:59.451Z,26.20
2018-04-18T21:26:26.931Z,26.60
2018-04-18T21:28:54.397Z,25.63
2018-04-18T21:31:21.879Z,24.70
2018-04-18T21:33:49.347Z,26.23
2018-04-18T21:36:16.824Z,24.93
2018-04-18T21:38:44.281Z,26.97
2018-04-18T21:41:11.766Z,25.53
2018-04-18T21:43:39.985Z,24.93
2018-04-18T21:46:07.459Z,24.90
2018-04-18T21:48:34.915Z,24.00
2018-04-18T21:51:02.432Z,26.57
2018-04-18T21:53:30.672Z,25.10
2018-04-18T21:55:58.124Z,26.00
2018-04-18T21:58:25.605Z,27.17
2018-04-18T22:00:53.859Z,25.97
2018-04-18T22:03:21.329Z,25.40
2018-04-18T22:05:48.786Z,26.40
2018-04-18T22:08:16.305Z,24.27
2018-04-18T22:10:43.794Z,27.07
2018-04-18T22:13:11.263Z,25.30
2018-04-18T22:15:38.727Z,26.77
2018-04-18T22:18:06.235Z,26.00
2018-04-18T22:20:33.751Z,26.50
2018-04-18T22:23:01.986Z,26.60
2018-04-18T22:25:29.471Z,25.90
2018-04-18T22:27:56.926Z,23.50
2018-04-18T22:30:24.504Z,27.17
2018-04-18T22:32:52.006Z,24.83
2018-04-18T22:35:19.483Z,27.07
2018-04-18T22:37:46.950Z,26.17
2018-04-18T22:40:14.439Z,25.77
2018-04-18T22:42:42.667Z,25.07
2018-04-18T22:45:10.149Z,26.77
2018-04-18T22:47:37.615Z,25.90
2018-04-18T22:50:05.110Z,24.90
2018-04-18T22:52:32.600Z,26.97
2018-04-18T22:55:00.058Z,27.07
2018-04-18T22:57:27.544Z,28.73
2018-04-18T22:59:55.007Z,25.33
2018-04-18T23:02:22.484Z,27.50
2018-04-18T23:04:50.712Z,27.37
2018-04-18T23:07:18.199Z,25.10
2018-04-18T23:09:45.671Z,24.10
2018-04-18T23:12:13.890Z,26.30
2018-04-18T23:14:41.372Z,27.00
2018-04-18T23:17:08.828Z,22.50
2018-04-18T23:19:36.322Z,27.07
2018-04-18T23:22:04.565Z,28.67
2018-04-18T23:24:32.010Z,26.53
2018-04-18T23:26:59.535Z,23.43
2018-04-18T23:29:27.051Z,24.30
2018-04-18T23:31:54.529Z,27.10
2018-04-18T23:34:22.028Z,25.90
2018-04-18T23:36:49.486Z,25.20
2018-04-18T23:39:16.952Z,25.40
2018-04-18T23:41:44.494Z,23.20
2018-04-18T23:44:11.976Z,25.77
2018-04-18T23:46:39.452Z,25.33
2018-04-18T23:49:07.001Z,25.70
2018-04-18T23:51:35.239Z,23.97
2018-04-18T23:54:02.691Z,22.60
2018-04-18T23:56:30.179Z,23.57
2018-04-18T23:58:57.664Z,25.33
